Millville, New Jersey
Current Conditions -  °F | °C
As of 11:54 PM on Monday 26 Jan 2015 (Local Time) from KMIV Reporting Station
Light Snow Light Snow  
Wind Chill: 18°   Ceiling: 1900
Heat Index: 30°   Visibility: 10mi
Dew Point: 23°   Wind: 20mph
Humidity: 75%   Direction: 10°N
Pressure: 29.65"   Gusts: NA
Location:  39.4°N, 75.03°W
Report Text: KMIV 270454Z AUTO 01017KT 10SM -SN BKN019 BKN040 OVC047 M01/M05 A2965 RMK AO2 PK WND 36029/0421 SNB54 SLP038 P0000 T10111050 400391017
Loading
Personal Weather Stations






























Interactive Weather Map New forecast layout! Learn more

10-Day Weather Forecast

Advertisements
Track Severe Weather on mobile